createdAt,value
2022-09-16T00:00:44.400Z,49314.78
2022-09-16T00:01:46.630Z,53263.88
2022-09-16T00:02:52.794Z,48995.84
2022-09-16T00:03:56.618Z,40731.91
2022-09-16T00:04:58.764Z,42386.78
2022-09-16T00:06:00.877Z,46999.56
2022-09-16T00:07:04.229Z,51620.06
2022-09-16T00:08:06.961Z,51279.34
2022-09-16T00:09:09.822Z,46673.75
2022-09-16T00:10:12.051Z,42712.19
2022-09-16T00:11:14.724Z,45686.63
2022-09-16T00:12:16.844Z,45682.00
2022-09-16T00:13:19.522Z,42394.69
2022-09-16T00:14:21.645Z,45038.81
2022-09-16T00:15:23.774Z,50630.19
2022-09-16T00:16:27.393Z,48012.75
2022-09-16T00:17:30.128Z,51298.66
2022-09-16T00:18:32.240Z,53282.69
2022-09-16T00:19:34.362Z,54271.34
2022-09-16T00:20:36.489Z,55597.91
2022-09-16T00:21:38.917Z,56592.03
2022-09-16T00:22:41.068Z,47338.25
2022-09-16T00:23:43.344Z,49651.47
2022-09-16T00:24:45.632Z,53945.47
2022-09-16T00:25:55.465Z,42084.88
2022-09-16T00:26:57.642Z,47674.13
2022-09-16T00:27:59.787Z,50643.31
2022-09-16T00:29:02.680Z,51309.13
2022-09-16T00:30:05.331Z,49645.28
2022-09-16T00:31:07.505Z,47011.66
2022-09-16T00:32:09.698Z,45031.13
2022-09-16T00:33:11.860Z,47333.44
2022-09-16T00:34:14.115Z,41406.91
2022-09-16T00:35:16.245Z,37450.44
2022-09-16T00:36:20.255Z,36153.56
2022-09-16T00:37:22.449Z,40413.75
2022-09-16T00:38:24.642Z,36456.72
2022-09-16T00:39:26.773Z,33513.06
2022-09-16T00:40:28.972Z,40749.88
2022-09-16T00:41:34.728Z,36800.13
2022-09-16T00:42:39.395Z,33844.47
2022-09-16T00:43:51.750Z,29921.72
2022-09-16T00:45:04.544Z,36166.34
2022-09-16T00:46:06.680Z,43711.28
2022-09-16T00:47:08.951Z,37127.03
2022-09-16T00:48:20.739Z,34519.19
2022-09-16T00:49:29.126Z,38790.09
2022-09-16T00:50:40.667Z,41751.44
2022-09-16T00:51:45.364Z,45380.97
2022-09-16T00:52:49.693Z,45706.22
2022-09-16T00:54:00.164Z,37474.97
2022-09-16T00:55:06.783Z,40120.25
2022-09-16T00:56:13.099Z,44076.81
2022-09-16T00:57:16.087Z,47031.47
2022-09-16T00:58:28.437Z,52634.16
2022-09-16T00:59:35.674Z,50668.72
2022-09-16T01:00:38.313Z,51975.63
2022-09-16T01:01:44.424Z,51645.19
2022-09-16T01:02:49.507Z,46038.28
2022-09-16T01:03:55.522Z,42754.34
2022-09-16T01:05:06.279Z,44405.66
2022-09-16T01:06:10.797Z,46037.22
2022-09-16T01:07:13.693Z,46027.50
2022-09-16T01:08:15.942Z,41076.31
2022-09-16T01:09:21.989Z,35165.09
2022-09-16T01:10:26.276Z,38127.03
2022-09-16T01:11:29.408Z,38773.94
2022-09-16T01:12:33.377Z,38455.88
2022-09-16T01:13:36.460Z,40762.19
2022-09-16T01:14:54.199Z,38115.28
2022-09-16T01:16:27.970Z,34859.53
2022-09-16T01:17:42.392Z,31884.38
2022-09-16T01:19:18.420Z,30567.50
2022-09-16T01:20:39.316Z,28936.81
2022-09-16T01:22:07.598Z,32218.31
2022-09-16T01:23:57.061Z,35846.41
2022-09-16T01:25:11.060Z,39087.94
2022-09-16T01:26:16.106Z,34477.97
2022-09-16T01:27:57.495Z,29918.56
2022-09-16T01:29:18.466Z,39777.28
2022-09-16T01:30:58.010Z,35837.34
2022-09-16T01:32:02.779Z,37782.53
2022-09-16T01:33:21.976Z,41099.88
2022-09-16T01:34:33.859Z,44699.72
2022-09-16T01:35:45.243Z,39103.94
2022-09-16T01:37:08.276Z,40752.09
2022-09-16T01:38:24.329Z,44719.22
2022-09-16T01:39:35.298Z,46047.25
2022-09-16T01:40:43.395Z,55306.75
2022-09-16T01:42:14.270Z,54305.09
2022-09-16T01:43:25.994Z,46692.69
2022-09-16T01:44:40.030Z,43392.88
2022-09-16T01:45:48.112Z,41087.13
2022-09-16T01:47:04.623Z,34186.44
2022-09-16T01:48:18.413Z,39453.50
2022-09-16T01:49:34.077Z,43407.72
2022-09-16T01:51:06.586Z,41416.53
2022-09-16T01:52:11.769Z,40447.56
2022-09-16T01:53:20.133Z,45055.69
2022-09-16T01:54:36.572Z,51335.28
2022-09-16T01:56:03.408Z,56636.19
2022-09-16T01:57:27.387Z,63537.06
2022-09-16T01:58:56.289Z,57929.88
2022-09-16T02:00:06.567Z,55600.53
2022-09-16T02:01:24.814Z,53637.66
2022-09-16T02:02:43.421Z,50983.97
2022-09-16T02:03:51.039Z,44371.81
2022-09-16T02:04:56.564Z,39428.81
2022-09-16T02:06:03.322Z,31875.63
2022-09-16T02:07:09.370Z,24002.03
2022-09-16T02:08:20.974Z,23352.19
2022-09-16T02:09:30.195Z,21714.22
2022-09-16T02:10:41.700Z,12887.75
2022-09-16T02:11:47.425Z,16807.22
2022-09-16T02:12:53.667Z,12554.19
2022-09-16T02:14:03.659Z,6685.66
2022-09-16T02:15:11.401Z,6360.09
2022-09-16T02:16:57.723Z,7339.50
2022-09-16T02:18:05.228Z,9296.75
2022-09-16T02:19:12.498Z,8970.09
2022-09-16T02:20:19.941Z,8971.44
2022-09-16T02:21:25.393Z,11907.47
2022-09-16T02:22:44.764Z,7013.97
2022-09-16T02:23:51.622Z,7340.19
2022-09-16T02:24:54.068Z,12231.13
2022-09-16T02:25:58.995Z,12562.69
2022-09-16T02:27:04.092Z,12562.94
2022-09-16T02:28:13.156Z,14527.94
2022-09-16T02:29:23.323Z,15834.66
2022-09-16T02:30:25.448Z,12885.31
2022-09-16T02:31:32.757Z,12893.53
2022-09-16T02:32:39.780Z,14199.25
2022-09-16T02:33:46.930Z,16806.75
2022-09-16T02:34:51.802Z,10926.13
2022-09-16T02:35:55.798Z,10931.12
2022-09-16T02:37:04.259Z,13218.25
2022-09-16T02:38:14.487Z,10602.09
2022-09-16T02:39:22.619Z,12238.50
2022-09-16T02:40:30.297Z,12234.00
2022-09-16T02:41:32.729Z,13866.41
2022-09-16T02:42:34.976Z,14846.72
2022-09-16T02:43:37.122Z,12884.25
2022-09-16T02:44:39.725Z,12884.78
2022-09-16T02:46:20.261Z,10932.91
2022-09-16T02:47:38.632Z,12564.72
2022-09-16T02:48:56.885Z,10930.53
2022-09-16T02:50:13.281Z,13219.72
2022-09-16T02:51:50.584Z,14198.75
2022-09-16T02:53:21.229Z,13219.78
2022-09-16T02:54:33.208Z,13872.22
2022-09-16T02:55:42.558Z,16810.56
2022-09-16T02:56:44.800Z,16475.91
2022-09-16T02:57:47.208Z,11900.56
2022-09-16T02:58:49.523Z,8315.41
2022-09-16T02:59:51.790Z,10597.28
2022-09-16T03:00:55.298Z,10275.88
2022-09-16T03:01:59.138Z,10602.25
2022-09-16T03:03:01.666Z,10268.81
2022-09-16T03:04:04.328Z,8641.09
2022-09-16T03:05:07.603Z,7010.44
2022-09-16T03:06:09.774Z,7336.69
2022-09-16T03:07:13.517Z,6358.56
2022-09-16T03:08:15.701Z,5055.31
2022-09-16T03:09:18.536Z,5708.09
2022-09-16T03:10:25.655Z,7012.38
2022-09-16T03:11:45.758Z,4731.41
2022-09-16T03:13:05.727Z,7666.13
2022-09-16T03:14:10.811Z,11259.31
2022-09-16T03:15:22.198Z,11256.50
2022-09-16T03:16:54.669Z,7993.31
2022-09-16T03:18:17.232Z,9622.47
2022-09-16T03:19:31.503Z,8317.81
2022-09-16T03:20:33.546Z,10270.13
2022-09-16T03:22:04.730Z,9626.50
2022-09-16T03:23:32.913Z,16487.34
2022-09-16T03:24:40.994Z,15175.81
2022-09-16T03:26:10.359Z,13869.91
2022-09-16T03:27:19.158Z,12234.25
2022-09-16T03:28:35.621Z,10599.41
2022-09-16T03:29:48.507Z,11906.91
2022-09-16T03:31:08.029Z,12886.34
2022-09-16T03:32:10.174Z,15494.94
2022-09-16T03:33:22.607Z,14194.25
2022-09-16T03:34:35.458Z,14197.19
2022-09-16T03:35:44.854Z,12883.03
2022-09-16T03:37:09.295Z,13540.84
2022-09-16T03:38:13.630Z,15173.78
2022-09-16T03:39:16.135Z,17784.00
2022-09-16T03:40:19.574Z,17779.53
2022-09-16T03:41:22.292Z,14838.22
2022-09-16T03:42:24.592Z,14185.31
2022-09-16T03:43:26.739Z,16145.94
2022-09-16T03:44:33.751Z,15174.53
2022-09-16T03:45:35.888Z,18434.66
2022-09-16T03:46:38.076Z,18430.16
2022-09-16T03:47:40.631Z,15817.41
2022-09-16T03:48:42.782Z,14508.59
2022-09-16T03:49:44.931Z,10266.31
2022-09-16T03:50:47.056Z,9614.75
2022-09-16T03:51:49.176Z,9615.53
2022-09-16T03:52:51.307Z,8964.34
2022-09-16T03:53:54.091Z,9943.97
2022-09-16T03:54:56.302Z,9290.34
2022-09-16T03:55:58.430Z,10596.88
2022-09-16T03:57:00.767Z,12878.13
2022-09-16T03:58:03.087Z,11244.34
2022-09-16T03:59:05.190Z,10267.63
2022-09-16T04:00:08.573Z,8638.44
2022-09-16T04:01:16.437Z,12226.28
2022-09-16T04:02:18.587Z,12877.97
2022-09-16T04:03:20.784Z,13856.66
2022-09-16T04:04:23.111Z,14511.91
2022-09-16T04:05:25.391Z,16799.09
2022-09-16T04:06:27.682Z,16793.75
2022-09-16T04:07:33.347Z,15821.41
2022-09-16T04:08:35.865Z,14832.97
2022-09-16T04:09:38.117Z,13526.22
2022-09-16T04:10:40.289Z,13524.91
2022-09-16T04:11:43.094Z,12550.66
2022-09-16T04:12:45.640Z,15490.03
2022-09-16T04:13:47.761Z,18103.50
2022-09-16T04:14:50.793Z,17771.75
2022-09-16T04:15:53.187Z,16138.88
2022-09-16T04:16:55.527Z,16792.78
2022-09-16T04:17:57.616Z,18753.84
2022-09-16T04:19:00.157Z,19408.16
2022-09-16T04:20:02.636Z,22352.44
2022-09-16T04:21:05.008Z,24312.31
2022-09-16T04:22:07.127Z,21366.22
2022-09-16T04:23:09.329Z,19402.25
2022-09-16T04:24:13.422Z,19731.84
2022-09-16T04:25:15.721Z,22346.34
2022-09-16T04:26:18.213Z,19725.69
2022-09-16T04:27:20.365Z,17113.41
2022-09-16T04:28:22.980Z,17112.53
2022-09-16T04:29:25.211Z,15156.09
2022-09-16T04:30:27.610Z,18747.09
2022-09-16T04:31:29.725Z,17435.66
2022-09-16T04:32:31.819Z,13849.03
2022-09-16T04:33:35.554Z,14832.75
2022-09-16T04:34:37.685Z,18418.06
2022-09-16T04:35:39.827Z,17762.09
2022-09-16T04:36:41.935Z,16131.81
2022-09-16T04:37:44.029Z,16133.19
2022-09-16T04:38:48.162Z,15811.72
2022-09-16T04:39:50.295Z,18091.28
2022-09-16T04:40:54.302Z,16131.00
2022-09-16T04:41:56.626Z,15152.91
2022-09-16T04:42:58.780Z,17107.06
2022-09-16T04:44:01.058Z,16459.56
2022-09-16T04:45:03.475Z,17112.91
2022-09-16T04:46:06.899Z,15479.84
2022-09-16T04:47:09.074Z,13845.50
2022-09-16T04:48:11.235Z,14500.03
2022-09-16T04:49:13.832Z,16458.88
2022-09-16T04:50:16.110Z,16131.34
2022-09-16T04:51:28.488Z,13519.91
2022-09-16T04:52:31.196Z,12214.56
2022-09-16T04:53:33.396Z,11234.56
2022-09-16T04:54:35.559Z,7652.84
2022-09-16T04:55:37.819Z,7978.25
2022-09-16T04:56:39.971Z,8957.13
2022-09-16T04:57:42.377Z,9282.44
2022-09-16T04:58:46.469Z,9610.31
2022-09-16T04:59:48.647Z,10586.44
2022-09-16T05:00:51.558Z,13196.19
2022-09-16T05:01:53.684Z,16132.25
2022-09-16T05:02:56.014Z,15475.06
2022-09-16T05:04:00.703Z,14175.03
2022-09-16T05:05:02.801Z,13841.41
2022-09-16T05:06:06.985Z,10584.66
2022-09-16T05:07:09.078Z,9933.22
2022-09-16T05:08:11.460Z,11888.34
2022-09-16T05:09:13.754Z,13845.41
2022-09-16T05:10:15.902Z,14825.84
2022-09-16T05:11:21.808Z,16136.38
2022-09-16T05:12:24.256Z,17761.69
2022-09-16T05:13:26.374Z,18088.28
2022-09-16T05:14:28.617Z,19069.59
2022-09-16T05:15:30.877Z,17760.81
2022-09-16T05:16:33.620Z,16453.72
2022-09-16T05:17:51.929Z,14167.78
2022-09-16T05:18:56.540Z,12867.22
2022-09-16T05:19:58.724Z,13518.16
2022-09-16T05:21:02.114Z,13847.31
2022-09-16T05:22:07.312Z,14168.38
2022-09-16T05:23:10.309Z,12214.31
2022-09-16T05:24:13.543Z,10587.53
2022-09-16T05:25:15.723Z,12543.69
2022-09-16T05:26:20.639Z,13201.50
2022-09-16T05:27:22.770Z,17443.00
2022-09-16T05:28:24.894Z,19732.41
2022-09-16T05:29:27.149Z,23000.91
2022-09-16T05:30:29.335Z,24305.81
2022-09-16T05:31:34.405Z,21696.19
2022-09-16T05:32:36.518Z,25289.97
2022-09-16T05:33:40.157Z,22342.53
2022-09-16T05:34:42.327Z,22988.66
2022-09-16T05:35:45.763Z,20705.72
2022-09-16T05:36:49.402Z,20708.44
2022-09-16T05:37:51.611Z,20703.91
2022-09-16T05:39:20.805Z,21354.44
2022-09-16T05:40:16.205Z,16450.72
2022-09-16T05:41:18.498Z,16131.47
2022-09-16T05:42:20.767Z,19068.22
2022-09-16T05:43:22.926Z,19399.41
2022-09-16T05:44:26.529Z,20385.22
2022-09-16T05:45:32.232Z,20700.56
2022-09-16T05:46:35.189Z,19401.13
2022-09-16T05:47:37.350Z,21034.34
2022-09-16T05:48:39.504Z,21693.16
2022-09-16T05:49:41.665Z,22340.22
2022-09-16T05:50:57.773Z,17779.78
2022-09-16T05:51:59.860Z,24632.97
2022-09-16T05:53:01.988Z,21693.16
2022-09-16T05:54:04.212Z,23657.06
2022-09-16T05:55:06.679Z,24644.34
2022-09-16T05:56:12.611Z,21041.44
2022-09-16T05:57:14.739Z,21363.69
2022-09-16T05:58:16.849Z,18416.63
2022-09-16T05:59:19.172Z,17107.56
2022-09-16T06:00:21.330Z,15482.88
2022-09-16T06:01:27.100Z,15487.00
2022-09-16T06:02:29.349Z,16131.34
2022-09-16T06:03:32.687Z,14509.19
2022-09-16T06:04:35.621Z,17117.56
2022-09-16T06:05:37.733Z,18101.53
2022-09-16T06:06:42.939Z,17126.56
2022-09-16T06:07:45.053Z,20057.94
2022-09-16T06:08:47.170Z,19737.00
2022-09-16T06:09:49.456Z,21049.28
2022-09-16T06:10:51.608Z,20387.59
2022-09-16T06:11:59.387Z,18429.34
2022-09-16T06:13:03.998Z,22018.53
2022-09-16T06:14:06.553Z,19733.84
2022-09-16T06:15:10.214Z,17455.09
2022-09-16T06:16:14.527Z,21052.69
2022-09-16T06:17:16.703Z,21035.75
2022-09-16T06:18:19.190Z,13207.00
2022-09-16T06:19:21.410Z,15821.75
2022-09-16T06:20:23.521Z,17785.53
2022-09-16T06:21:26.190Z,21393.50
2022-09-16T06:22:30.634Z,21734.16
2022-09-16T06:23:33.496Z,28616.06
2022-09-16T06:24:35.643Z,35840.34
2022-09-16T06:25:37.759Z,35525.78
2022-09-16T06:26:41.611Z,35881.09
2022-09-16T06:27:43.780Z,53656.19
2022-09-16T06:28:47.154Z,54037.50
2022-09-16T06:29:49.288Z,62947.34
2022-09-16T06:31:01.738Z,55996.50
2022-09-16T06:32:03.899Z,56291.38
2022-09-16T06:33:06.834Z,53337.53
2022-09-16T06:34:14.385Z,47727.03
2022-09-16T06:35:16.546Z,50025.13
2022-09-16T06:36:21.944Z,48730.44
2022-09-16T06:37:24.116Z,58637.38
2022-09-16T06:38:26.270Z,61316.75
2022-09-16T06:39:28.375Z,83990.34
2022-09-16T06:40:30.492Z,100118.84
2022-09-16T06:41:34.552Z,132180.91
2022-09-16T06:42:36.724Z,149085.41
2022-09-16T06:43:39.842Z,149571.84
2022-09-16T06:44:42.070Z,149496.38
2022-09-16T06:45:44.296Z,149552.31
2022-09-16T06:46:46.627Z,149603.47
2022-09-16T06:47:48.942Z,149661.91
2022-09-16T06:48:53.109Z,149817.69
2022-09-16T06:49:55.226Z,149783.63
2022-09-16T06:51:02.306Z,149966.28
2022-09-16T06:52:04.399Z,149855.44
2022-09-16T06:53:06.583Z,149919.97
2022-09-16T06:54:09.949Z,149978.44
2022-09-16T06:55:12.092Z,149842.06
2022-09-16T06:56:16.896Z,149943.13
2022-09-16T06:57:20.246Z,149862.78
2022-09-16T06:58:22.442Z,149961.41
2022-09-16T06:59:24.522Z,149876.16
2022-09-16T07:00:26.738Z,149958.97
2022-09-16T07:01:30.900Z,149948.00
2022-09-16T07:02:33.474Z,149929.75
2022-09-16T07:03:44.039Z,150227.06
2022-09-16T07:04:49.964Z,150261.19
2022-09-16T07:06:01.728Z,150101.53
2022-09-16T07:07:11.214Z,150113.69
2022-09-16T07:08:13.387Z,149881.03
2022-09-16T07:09:15.478Z,149968.72
2022-09-16T07:10:17.653Z,149676.47
2022-09-16T07:11:21.611Z,149677.69
2022-09-16T07:12:23.838Z,149581.56
2022-09-16T07:13:26.563Z,149406.38
2022-09-16T07:14:29.692Z,149425.78
2022-09-16T07:15:31.862Z,149464.75
2022-09-16T07:16:34.044Z,149557.16
2022-09-16T07:17:36.666Z,149676.47
2022-09-16T07:18:39.078Z,149773.84
2022-09-16T07:19:42.341Z,149845.72
2022-09-16T07:20:44.645Z,149861.56
2022-09-16T07:21:46.763Z,149978.44
2022-09-16T07:22:50.763Z,150083.22
2022-09-16T07:23:55.196Z,150334.31
2022-09-16T07:24:57.371Z,150307.50
2022-09-16T07:26:14.537Z,150362.34
2022-09-16T07:27:16.745Z,150444.06
2022-09-16T07:28:19.801Z,150344.06
2022-09-16T07:29:22.001Z,150370.88
2022-09-16T07:30:24.093Z,150184.34
2022-09-16T07:31:28.696Z,150496.50
2022-09-16T07:32:30.884Z,150462.38
2022-09-16T07:33:37.518Z,150618.53
2022-09-16T07:34:39.686Z,150495.28
2022-09-16T07:35:41.785Z,150563.59
2022-09-16T07:36:48.573Z,150563.59
2022-09-16T07:37:50.732Z,150259.97
2022-09-16T07:38:54.791Z,150341.63
2022-09-16T07:39:57.078Z,150242.91
2022-09-16T07:41:11.359Z,150473.34
2022-09-16T07:42:13.563Z,150468.47
2022-09-16T07:43:15.683Z,150222.22
2022-09-16T07:44:20.159Z,150330.66
2022-09-16T07:45:22.275Z,150100.31
2022-09-16T07:46:25.482Z,150071.06
2022-09-16T07:47:27.639Z,150228.28
2022-09-16T07:48:34.828Z,150113.69
2022-09-16T07:49:37.522Z,150219.78
2022-09-16T07:50:39.631Z,150320.94
2022-09-16T07:51:42.295Z,150361.13
2022-09-16T07:53:48.214Z,150539.19
2022-09-16T07:54:50.634Z,150489.19
2022-09-16T07:55:53.608Z,150673.38
2022-09-16T07:56:57.631Z,150793.00
2022-09-16T07:57:59.778Z,150768.59
2022-09-16T07:59:03.691Z,150609.94
2022-09-16T08:00:06.416Z,150733.19
2022-09-16T08:01:15.884Z,150838.16
2022-09-16T08:02:18.200Z,150727.09
2022-09-16T08:03:20.628Z,150622.19
2022-09-16T08:04:22.847Z,150761.28
2022-09-16T08:05:25.118Z,150868.66
2022-09-16T08:06:31.353Z,150957.81
2022-09-16T08:07:33.618Z,150900.41
2022-09-16T08:08:35.750Z,151007.91
2022-09-16T08:09:41.315Z,151144.69
2022-09-16T08:10:56.341Z,151264.38
2022-09-16T08:11:59.096Z,151143.47
2022-09-16T08:13:01.207Z,151203.25
2022-09-16T08:14:03.896Z,151193.50
2022-09-16T08:15:06.893Z,151200.81
2022-09-16T08:16:12.405Z,151159.31
2022-09-16T08:17:14.850Z,150923.66
2022-09-16T08:18:17.184Z,150971.22
2022-09-16T08:19:20.890Z,150607.50
2022-09-16T08:20:24.186Z,150753.97
2022-09-16T08:21:28.999Z,150825.97
2022-09-16T08:22:31.092Z,150569.72
2022-09-16T08:23:33.308Z,150614.88
2022-09-16T08:24:35.720Z,150618.53
2022-09-16T08:25:38.260Z,150672.16
2022-09-16T08:26:40.434Z,150812.56
2022-09-16T08:27:42.783Z,150675.81
2022-09-16T08:29:04.926Z,150647.81
2022-09-16T08:30:10.227Z,150902.84
2022-09-16T08:31:13.121Z,150937.06
2022-09-16T08:32:15.311Z,150973.66
2022-09-16T08:33:21.091Z,150846.72
2022-09-16T08:34:23.401Z,150695.38
2022-09-16T08:35:26.605Z,150850.38
2022-09-16T08:36:28.788Z,150653.91
2022-09-16T08:37:31.175Z,150630.69
2022-09-16T08:38:33.892Z,150686.84
2022-09-16T08:39:36.170Z,150856.47
2022-09-16T08:40:38.484Z,151073.81
2022-09-16T08:42:05.107Z,151222.81
2022-09-16T08:43:56.518Z,151068.91
2022-09-16T08:44:59.411Z,150954.16
2022-09-16T08:46:17.565Z,151200.81
2022-09-16T08:47:44.630Z,151016.44
2022-09-16T08:48:51.339Z,150760.06
2022-09-16T08:49:54.443Z,150807.63
2022-09-16T08:50:58.836Z,150514.81
2022-09-16T08:52:08.539Z,150591.69
2022-09-16T08:53:45.920Z,150861.34
2022-09-16T08:54:54.981Z,150761.28
2022-09-16T08:55:58.619Z,150815.00
2022-09-16T08:57:04.851Z,151049.38
2022-09-16T08:58:17.762Z,150755.19
2022-09-16T08:59:24.881Z,150805.19
2022-09-16T09:00:27.080Z,150828.41
2022-09-16T09:01:32.837Z,150927.31
2022-09-16T09:02:59.563Z,150916.28
2022-09-16T09:04:03.148Z,150823.53
2022-09-16T09:05:19.086Z,151015.22
2022-09-16T09:06:40.743Z,150836.94
2022-09-16T09:07:52.900Z,150981.03
2022-09-16T09:09:09.640Z,151137.31
2022-09-16T09:10:20.884Z,150992.00
2022-09-16T09:11:50.978Z,150556.28
2022-09-16T09:13:14.540Z,150418.50
2022-09-16T09:14:54.517Z,150347.69
2022-09-16T09:16:09.440Z,150419.72
2022-09-16T09:17:59.643Z,150833.28
2022-09-16T09:19:23.927Z,150876.03
2022-09-16T09:20:44.549Z,150783.25
2022-09-16T09:22:08.030Z,151021.31
2022-09-16T09:23:33.037Z,151024.97
2022-09-16T09:24:38.162Z,150993.22
2022-09-16T09:25:46.681Z,151292.50
2022-09-16T09:26:58.232Z,151369.50
2022-09-16T09:28:32.665Z,151529.56
2022-09-16T09:30:03.239Z,151160.53
2022-09-16T09:31:12.637Z,151032.28
2022-09-16T09:32:49.448Z,151217.94
2022-09-16T09:34:25.373Z,150988.34
2022-09-16T09:35:47.315Z,150805.19
2022-09-16T09:37:23.541Z,150696.56
2022-09-16T09:38:58.074Z,150548.97
2022-09-16T09:40:25.408Z,150530.66
2022-09-16T09:41:37.004Z,150439.19
2022-09-16T09:42:48.013Z,150601.44
2022-09-16T09:44:01.225Z,150861.34
2022-09-16T09:45:25.052Z,151007.91
2022-09-16T09:46:41.373Z,150717.34
2022-09-16T09:48:05.149Z,150666.06
2022-09-16T09:49:13.945Z,150923.66
2022-09-16T09:50:25.382Z,150609.94
2022-09-16T09:51:36.076Z,150658.78
2022-09-16T09:52:44.333Z,150819.88
2022-09-16T09:53:53.920Z,150978.59
2022-09-16T09:55:06.545Z,150993.22
2022-09-16T09:56:11.420Z,150888.22
2022-09-16T09:57:39.462Z,150871.09
2022-09-16T09:58:57.878Z,150904.06
2022-09-16T10:00:17.247Z,150851.59
2022-09-16T10:01:19.730Z,150617.31
2022-09-16T10:02:23.489Z,150683.19
2022-09-16T10:03:27.568Z,150658.78
2022-09-16T10:04:38.372Z,150412.34
2022-09-16T10:05:41.373Z,150173.41
2022-09-16T10:06:46.041Z,150300.19
2022-09-16T10:07:49.618Z,149934.63
2022-09-16T10:08:54.254Z,149958.97
2022-09-16T10:10:02.760Z,149890.78
2022-09-16T10:11:17.686Z,149754.34
2022-09-16T10:12:46.311Z,149632.69
2022-09-16T10:13:51.552Z,149740.97
2022-09-16T10:14:53.779Z,149888.31
2022-09-16T10:16:10.678Z,150027.22
2022-09-16T10:17:17.832Z,149895.66
2022-09-16T10:18:29.910Z,149815.28
2022-09-16T10:19:39.299Z,149822.56
2022-09-16T10:20:54.510Z,149687.41
2022-09-16T10:22:22.482Z,149742.19
2022-09-16T10:23:29.629Z,149951.63
2022-09-16T10:24:38.918Z,150203.91
2022-09-16T10:25:42.746Z,150424.59
2022-09-16T10:26:44.893Z,150420.94
2022-09-16T10:28:01.723Z,150718.56
2022-09-16T10:29:16.562Z,151024.97
2022-09-16T10:31:39.307Z,150905.28
2022-09-16T10:32:56.533Z,150990.78
2022-09-16T10:34:00.504Z,151220.38
2022-09-16T10:35:07.437Z,151398.78
2022-09-16T10:36:19.024Z,151541.81
2022-09-16T10:37:21.972Z,151116.59
2022-09-16T10:38:34.753Z,151309.63
2022-09-16T10:39:38.673Z,151061.59
2022-09-16T10:40:52.758Z,151208.19
2022-09-16T10:41:54.996Z,150956.59
2022-09-16T10:43:03.527Z,150968.78
2022-09-16T10:44:25.171Z,151031.06
2022-09-16T10:45:30.014Z,151112.94
2022-09-16T10:46:32.738Z,150954.16
2022-09-16T10:47:36.313Z,151098.25
2022-09-16T10:48:42.567Z,151123.91
2022-09-16T10:49:51.115Z,151266.81
2022-09-16T10:50:54.288Z,151248.47
2022-09-16T10:52:07.413Z,151281.50
2022-09-16T10:53:39.125Z,151174.00
2022-09-16T10:54:41.744Z,151160.53
2022-09-16T10:55:43.915Z,151149.56
2022-09-16T10:56:51.875Z,151035.94
2022-09-16T10:58:06.709Z,151132.44
2022-09-16T10:59:13.788Z,150990.78
2022-09-16T11:00:17.682Z,150802.75
2022-09-16T11:01:46.676Z,150612.38
2022-09-16T11:03:27.356Z,150738.03
2022-09-16T11:04:42.822Z,150309.91
2022-09-16T11:05:59.949Z,150213.66
2022-09-16T11:07:14.297Z,150079.56
2022-09-16T11:08:35.137Z,150019.88
2022-09-16T11:10:06.222Z,149588.84
2022-09-16T11:11:47.305Z,149247.03
2022-09-16T11:13:08.003Z,149304.19
2022-09-16T11:14:31.676Z,149240.97
2022-09-16T11:15:40.664Z,149265.22
2022-09-16T11:16:52.144Z,138171.59
2022-09-16T11:18:07.865Z,146010.97
2022-09-16T11:19:21.908Z,133455.41
2022-09-16T11:20:29.860Z,108981.13
2022-09-16T11:21:50.049Z,149576.69
2022-09-16T11:23:53.989Z,149775.06
2022-09-16T11:25:21.004Z,149956.56
2022-09-16T11:26:52.350Z,149798.25
2022-09-16T11:28:14.240Z,150088.13
2022-09-16T11:29:27.276Z,150331.88
2022-09-16T11:30:40.282Z,150129.56
2022-09-16T11:31:54.537Z,150357.50
2022-09-16T11:32:59.775Z,150280.66
2022-09-16T11:34:08.926Z,150559.94
2022-09-16T11:35:23.174Z,150656.34
2022-09-16T11:36:31.145Z,150622.19
2022-09-16T11:37:51.750Z,150583.16
2022-09-16T11:39:19.950Z,150651.47
2022-09-16T11:40:47.954Z,150407.50
2022-09-16T11:42:01.627Z,150419.72
2022-09-16T11:43:22.447Z,150556.28
2022-09-16T11:44:47.684Z,150713.69
2022-09-16T11:45:57.054Z,150736.81
2022-09-16T11:47:14.316Z,150527.00
2022-09-16T11:48:35.000Z,150642.88
2022-09-16T11:50:01.562Z,150605.09
2022-09-16T11:51:06.772Z,150673.38
2022-09-16T11:52:14.813Z,150677.03
2022-09-16T11:53:58.286Z,150878.44
2022-09-16T11:55:00.658Z,150380.66
2022-09-16T11:56:13.381Z,150364.78
2022-09-16T11:57:19.569Z,150417.28
2022-09-16T11:58:38.288Z,150392.88
2022-09-16T12:00:09.755Z,150229.50
2022-09-16T12:01:42.843Z,150227.06
2022-09-16T12:03:00.184Z,150251.47
2022-09-16T12:04:49.712Z,150629.50
2022-09-16T12:06:04.624Z,150666.06
2022-09-16T12:07:41.780Z,150843.06
2022-09-16T12:08:56.329Z,151152.00
2022-09-16T12:10:23.831Z,151134.88
2022-09-16T12:11:36.570Z,151084.78
2022-09-16T12:12:44.622Z,150739.25
2022-09-16T12:14:05.472Z,150583.16
2022-09-16T12:15:26.203Z,150613.66
2022-09-16T12:16:54.204Z,150569.72
2022-09-16T12:18:03.693Z,150358.72
2022-09-16T12:19:14.329Z,150531.88
2022-09-16T12:20:26.581Z,150634.34
2022-09-16T12:21:37.676Z,150490.41
2022-09-16T12:22:50.710Z,150708.75
2022-09-16T12:24:04.358Z,150378.19
2022-09-16T12:25:26.545Z,150536.75
2022-09-16T12:26:41.366Z,150548.97
2022-09-16T12:27:55.789Z,150366.00
2022-09-16T12:29:11.825Z,150607.50
2022-09-16T12:30:29.113Z,150656.34
2022-09-16T12:31:39.124Z,150441.63
2022-09-16T12:32:55.418Z,150472.13
2022-09-16T12:34:12.681Z,150628.28
2022-09-16T12:35:25.526Z,150517.25
2022-09-16T12:36:32.466Z,150611.16
2022-09-16T12:37:40.284Z,150280.66
2022-09-16T12:38:45.285Z,150227.06
2022-09-16T12:39:50.026Z,150214.84
2022-09-16T12:41:23.175Z,150398.97
2022-09-16T12:43:03.514Z,150497.72
2022-09-16T12:44:35.742Z,150352.63
2022-09-16T12:46:03.671Z,150528.22
2022-09-16T12:47:37.832Z,150444.06
2022-09-16T12:48:59.062Z,150468.47
2022-09-16T12:50:40.103Z,150366.00
2022-09-16T12:52:06.225Z,150288.00
2022-09-16T12:53:23.547Z,150214.84
2022-09-16T12:55:04.129Z,150095.44
2022-09-16T12:56:33.819Z,150163.66
2022-09-16T12:57:59.358Z,150145.38
2022-09-16T12:59:04.125Z,149916.31
2022-09-16T13:00:14.560Z,150034.53
2022-09-16T13:01:33.559Z,149846.94
2022-09-16T13:02:56.394Z,149768.97
2022-09-16T13:04:14.400Z,149833.56
2022-09-16T13:05:23.085Z,149734.91
2022-09-16T13:06:38.295Z,149817.69
2022-09-16T13:07:42.080Z,149756.78
2022-09-16T13:08:44.638Z,149625.34
2022-09-16T13:09:47.502Z,149720.28
2022-09-16T13:11:47.204Z,149917.53
2022-09-16T13:12:40.797Z,149700.84
2022-09-16T13:13:52.537Z,149840.84
2022-09-16T13:15:04.933Z,149949.22
2022-09-16T13:16:09.336Z,149770.19
2022-09-16T13:17:12.739Z,149710.56
2022-09-16T13:18:17.871Z,149781.19
2022-09-16T13:19:39.443Z,149849.34
2022-09-16T13:20:56.526Z,149827.47
2022-09-16T13:22:06.223Z,149840.84
2022-09-16T13:23:21.638Z,149825.03
2022-09-16T13:24:38.681Z,149708.13
2022-09-16T13:25:51.188Z,149775.06
2022-09-16T13:26:53.653Z,149639.97